Time;durP1;ratioP1;P1;durP2;ratioP2;P2;SDS_P1;SDS_P2;PMS_P1;PMS_P2;Temp;Humidity;BMP_temperature;BMP_pressure;BME280_temperature;BME280_humidity;BME280_pressure;Samples;Min_cycle;Max_cycle;Signal;HPM_P1;HPM_P2
2023/12/12 00:02:16;;;;;;;6.57;2.60;;;;;;;6.69;93.67;99673.25;5008881;28;20701;-77
2023/12/12 00:04:42;;;;;;;7.23;2.87;;;;;;;6.51;95.66;99643.25;5009401;28;20274;-78
2023/12/12 00:07:08;;;;;;;4.77;2.80;;;;;;;7.08;94.76;99619.84;5011716;28;20212;-77
2023/12/12 00:09:35;;;;;;;4.97;2.90;;;;;;;7.15;92.51;99650.00;5014762;28;20224;-78
2023/12/12 00:12:01;;;;;;;3.93;2.13;;;;;;;7.01;91.60;99683.09;5007522;28;20219;-78
2023/12/12 00:14:27;;;;;;;4.33;2.23;;;;;;;6.99;91.68;99696.97;5015795;28;20263;-77
2023/12/12 00:16:54;;;;;;;4.83;2.90;;;;;;;6.99;91.98;99694.38;5016916;28;20270;-77
2023/12/12 00:19:21;;;;;;;6.37;2.67;;;;;;;7.16;91.43;99701.00;5016764;28;20225;-78
2023/12/12 00:21:48;;;;;;;4.37;2.60;;;;;;;7.31;90.72;99722.38;5014505;28;20730;-77
2023/12/12 00:24:14;;;;;;;5.77;3.60;;;;;;;7.42;89.59;99743.00;5015635;28;20209;-77
2023/12/12 00:26:41;;;;;;;5.77;3.43;;;;;;;7.42;89.47;99759.41;5015493;28;20205;-77
2023/12/12 00:29:07;;;;;;;5.60;3.23;;;;;;;7.54;88.98;99764.38;5001492;28;20205;-78
2023/12/12 00:31:33;;;;;;;4.73;3.03;;;;;;;7.61;87.93;99788.53;5052102;23;20287;-81
2023/12/12 00:34:00;;;;;;;5.97;2.80;;;;;;;7.66;87.37;99812.66;5038967;28;20204;-81
2023/12/12 00:36:27;;;;;;;3.40;2.97;;;;;;;7.69;86.72;99837.72;5037842;28;20706;-82
2023/12/12 00:38:53;;;;;;;4.53;2.77;;;;;;;7.73;86.36;99863.66;5040196;28;20210;-81
2023/12/12 00:41:20;;;;;;;5.93;2.90;;;;;;;7.74;85.84;99882.69;5039996;28;20892;-80
2023/12/12 00:43:46;;;;;;;4.20;2.30;;;;;;;7.61;85.51;99904.53;5039418;28;20204;-80
2023/12/12 00:46:12;;;;;;;8.23;2.73;;;;;;;7.35;87.06;99880.69;5039620;28;20200;-80
2023/12/12 00:48:39;;;;;;;4.90;3.00;;;;;;;7.46;87.50;99877.94;5028023;28;20651;-81
2023/12/12 00:51:08;;;;;;;5.93;2.90;;;;;;;7.56;86.61;99879.50;5027261;28;20229;-80
2023/12/12 00:53:36;;;;;;;2.73;2.00;;;;;;;7.39;87.10;99891.03;5034531;28;20207;-81
2023/12/12 00:56:02;;;;;;;4.40;2.73;;;;;;;7.45;87.75;99880.53;5036141;28;20280;-81
2023/12/12 00:58:28;;;;;;;3.07;2.30;;;;;;;7.54;87.08;99870.03;5028892;28;20201;-81
2023/12/12 01:00:54;;;;;;;5.00;1.90;;;;;;;7.63;86.75;99887.19;5034834;28;20269;-81
2023/12/12 01:03:21;;;;;;;2.13;1.60;;;;;;;7.65;85.79;99896.69;5038983;28;20212;-81
2023/12/12 01:05:47;;;;;;;3.23;1.50;;;;;;;7.65;85.94;99907.09;5039919;28;20269;-81
2023/12/12 01:08:13;;;;;;;4.47;1.80;;;;;;;7.62;85.69;99916.66;5038716;28;20353;-81
2023/12/12 01:10:41;;;;;;;6.77;1.80;;;;;;;7.58;85.41;99915.84;5031243;28;20273;-80
2023/12/12 01:13:07;;;;;;;3.10;1.37;;;;;;;7.61;86.12;99909.72;5038301;28;20510;-80
2023/12/12 01:15:34;;;;;;;2.87;1.40;;;;;;;7.62;85.87;99911.47;5039515;28;20224;-81
2023/12/12 01:18:00;;;;;;;3.83;1.40;;;;;;;7.66;86.09;99910.53;5039178;28;20256;-80
2023/12/12 01:20:26;;;;;;;2.97;1.70;;;;;;;7.71;85.51;99922.56;5038709;28;20325;-82
2023/12/12 01:22:53;;;;;;;4.20;1.90;;;;;;;7.69;85.70;99928.66;5032474;28;20665;-81
2023/12/12 01:25:19;;;;;;;5.57;1.53;;;;;;;7.73;85.48;99927.72;5037886;28;20207;-80
2023/12/12 01:27:47;;;;;;;6.07;1.30;;;;;;;7.73;85.91;99930.31;5038156;28;20201;-80
2023/12/12 01:30:13;;;;;;;5.30;1.47;;;;;;;7.72;85.72;99933.81;5038448;28;20660;-80
2023/12/12 01:32:40;;;;;;;8.67;2.20;;;;;;;7.65;85.96;99933.06;5038838;28;20204;-80
2023/12/12 01:35:07;;;;;;;5.47;1.50;;;;;;;7.72;86.38;99915.63;5037777;28;20231;-81
2023/12/12 01:37:33;;;;;;;5.77;2.23;;;;;;;7.67;86.20;99913.09;5038404;28;20274;-80
2023/12/12 01:39:59;;;;;;;2.70;1.30;;;;;;;7.69;86.20;99911.34;5038528;28;20741;-81
2023/12/12 01:42:25;;;;;;;3.87;1.60;;;;;;;7.69;85.59;99913.94;5038560;28;20251;-81
2023/12/12 01:44:53;;;;;;;5.63;3.20;;;;;;;7.48;86.04;99916.84;5038213;28;20209;-79
2023/12/12 01:47:19;;;;;;;4.27;1.90;;;;;;;7.50;86.35;99900.38;5037948;28;20207;-81
2023/12/12 01:49:46;;;;;;;3.97;1.80;;;;;;;7.54;85.89;99901.19;5038307;28;20204;-80
2023/12/12 01:52:13;;;;;;;2.37;1.37;;;;;;;7.53;86.29;99904.66;5032568;28;20586;-80
2023/12/12 01:54:45;;;;;;;4.70;1.77;;;;;;;7.60;86.43;99905.44;5037474;28;20204;-80
2023/12/12 01:57:14;;;;;;;3.13;2.63;;;;;;;7.59;86.62;99891.59;5037415;28;20243;-81
2023/12/12 01:59:41;;;;;;;6.83;2.23;;;;;;;7.55;86.04;99890.78;5038054;28;20203;-79
2023/12/12 02:02:11;;;;;;;7.70;2.10;;;;;;;7.44;87.10;99897.00;5037430;28;20215;-79
2023/12/12 02:04:37;;;;;;;3.83;2.17;;;;;;;7.46;86.64;99877.94;5033474;28;20231;-80
2023/12/12 02:07:04;;;;;;;5.67;2.97;;;;;;;7.36;87.09;99884.13;5033842;28;20207;-81
2023/12/12 02:09:31;;;;;;;6.87;3.37;;;;;;;7.47;86.34;99877.06;5037894;28;20201;-80
2023/12/12 02:11:58;;;;;;;4.97;2.20;;;;;;;7.48;86.41;99883.94;5037157;28;20223;-80
2023/12/12 02:14:24;;;;;;;4.40;3.03;;;;;;;7.44;87.01;99882.28;5030072;28;20207;-80
2023/12/12 02:16:50;;;;;;;5.20;2.70;;;;;;;7.47;86.71;99877.06;5037268;28;20637;-80
2023/12/12 02:19:18;;;;;;;3.87;2.43;;;;;;;7.45;86.67;99877.94;5036887;28;20672;-78
2023/12/12 02:21:46;;;;;;;5.17;3.13;;;;;;;7.39;86.80;99876.28;5034466;28;20309;-80
2023/12/12 02:24:12;;;;;;;6.27;3.93;;;;;;;7.37;88.09;99865.06;5034233;28;20633;-80
2023/12/12 02:26:38;;;;;;;4.00;3.07;;;;;;;7.45;86.92;99860.66;5037558;28;20208;-81
2023/12/12 02:29:05;;;;;;;4.90;3.00;;;;;;;7.48;86.20;99870.13;5036746;28;20205;-80
2023/12/12 02:31:31;;;;;;;4.50;3.07;;;;;;;7.38;86.33;99886.72;5037093;28;20291;-80
2023/12/12 02:33:58;;;;;;;7.40;3.00;;;;;;;7.42;86.36;99881.44;5037739;28;20207;-80
2023/12/12 02:36:24;;;;;;;4.40;2.70;;;;;;;7.40;86.50;99879.75;5036835;28;20281;-80
2023/12/12 02:38:51;;;;;;;4.07;3.07;;;;;;;7.40;86.25;99892.75;5037513;28;20790;-80
2023/12/12 02:41:18;;;;;;;4.43;3.20;;;;;;;7.33;86.69;99890.25;5037875;28;20250;-80
2023/12/12 02:43:44;;;;;;;3.10;2.70;;;;;;;7.36;86.59;99881.53;5036473;28;20214;-78
2023/12/12 02:46:10;;;;;;;4.40;2.70;;;;;;;7.40;86.33;99880.63;5036871;28;20283;-80
2023/12/12 02:48:37;;;;;;;3.93;3.07;;;;;;;7.34;86.17;99885.91;5037042;28;20274;-80
2023/12/12 02:51:04;;;;;;;4.33;3.63;;;;;;;7.35;86.47;99887.59;5036600;28;20225;-80
2023/12/12 02:53:31;;;;;;;7.13;2.90;;;;;;;7.42;85.83;99883.19;5030910;28;20210;-80
2023/12/12 02:55:58;;;;;;;4.77;3.40;;;;;;;7.44;86.00;99891.81;5037629;28;20220;-81
2023/12/12 02:58:24;;;;;;;5.20;3.00;;;;;;;7.40;85.79;99893.59;5036293;28;20214;-81
2023/12/12 03:00:51;;;;;;;4.87;3.30;;;;;;;7.39;85.28;99898.81;5036206;28;20287;-81
2023/12/12 03:03:17;;;;;;;10.73;3.33;;;;;;;7.34;85.84;99891.94;5037225;28;20284;-80
2023/12/12 03:05:43;;;;;;;4.07;3.03;;;;;;;7.36;85.91;99884.13;5037081;28;20259;-79
2023/12/12 03:08:10;;;;;;;3.97;3.23;;;;;;;7.34;85.64;99885.91;5036749;28;20209;-80
2023/12/12 03:10:36;;;;;;;5.37;2.97;;;;;;;7.31;85.54;99883.34;5021363;28;20223;-79
2023/12/12 03:13:03;;;;;;;4.67;2.57;;;;;;;7.26;85.16;99887.75;5035970;28;20237;-81
2023/12/12 03:15:30;;;;;;;5.53;2.83;;;;;;;7.03;86.94;99878.53;5036368;28;20222;-80
2023/12/12 03:17:56;;;;;;;4.40;3.20;;;;;;;7.04;86.58;99851.72;5037202;28;20204;-80
2023/12/12 03:20:22;;;;;;;4.33;2.80;;;;;;;7.02;86.12;99848.28;5036307;28;20512;-80
2023/12/12 03:22:49;;;;;;;5.97;3.20;;;;;;;7.05;85.72;99850.81;5030789;28;20204;-80
2023/12/12 03:25:15;;;;;;;4.40;3.10;;;;;;;6.96;86.38;99850.97;5036488;28;20282;-80
2023/12/12 03:27:41;;;;;;;3.63;3.30;;;;;;;7.04;86.46;99854.31;5029071;28;20224;-81
2023/12/12 03:30:10;;;;;;;8.33;3.33;;;;;;;6.99;85.91;99858.69;5036623;28;20238;-80
2023/12/12 03:32:37;;;;;;;5.80;3.50;;;;;;;7.03;86.10;99857.78;5036774;28;20205;-80
2023/12/12 03:35:04;;;;;;;8.60;3.20;;;;;;;7.03;85.58;99870.75;5036348;28;20259;-80
2023/12/12 03:37:30;;;;;;;6.57;4.30;;;;;;;6.99;85.33;99869.06;5036063;28;20670;-79
2023/12/12 03:39:56;;;;;;;8.00;3.43;;;;;;;6.99;85.65;99876.00;5036298;28;20558;-80
2023/12/12 03:42:23;;;;;;;3.90;2.93;;;;;;;6.96;85.73;99867.38;5038975;28;20259;-80
2023/12/12 03:44:49;;;;;;;6.17;3.30;;;;;;;6.95;84.77;99885.56;5037057;28;20266;-82
2023/12/12 03:47:17;;;;;;;3.57;2.60;;;;;;;6.96;84.80;99887.28;5032715;28;20205;-80
2023/12/12 03:49:43;;;;;;;5.53;2.90;;;;;;;6.95;85.19;99898.53;5040219;28;20208;-80
2023/12/12 03:52:09;;;;;;;3.23;2.93;;;;;;;6.93;85.24;99893.34;5039425;28;20751;-80
2023/12/12 03:54:36;;;;;;;3.43;2.73;;;;;;;6.93;85.14;99897.69;5040723;28;20234;-81
2023/12/12 03:57:03;;;;;;;4.03;2.87;;;;;;;6.94;85.29;99886.47;5040563;28;20319;-80
2023/12/12 03:59:29;;;;;;;6.50;3.20;;;;;;;6.96;85.81;99879.50;5039773;28;20208;-80
2023/12/12 04:01:55;;;;;;;6.53;3.00;;;;;;;6.97;85.50;99887.25;5040154;28;20267;-80
2023/12/12 04:04:23;;;;;;;7.53;3.10;;;;;;;6.93;85.48;99884.72;5040488;28;20253;-80
2023/12/12 04:06:49;;;;;;;4.13;3.23;;;;;;;6.92;85.63;99890.81;5040140;28;20201;-81
2023/12/12 04:09:16;;;;;;;3.33;2.57;;;;;;;6.93;85.86;99880.38;5031545;28;20223;-79
2023/12/12 04:11:42;;;;;;;2.93;2.63;;;;;;;6.95;85.31;99889.00;5039613;28;20242;-81
2023/12/12 04:14:09;;;;;;;4.17;2.70;;;;;;;6.91;85.79;99882.16;5030228;28;20219;-81
2023/12/12 04:16:35;;;;;;;3.93;3.17;;;;;;;6.70;87.57;99882.41;5038408;28;20229;-80
2023/12/12 04:19:01;;;;;;;5.17;2.63;;;;;;;6.69;87.37;99845.25;5040021;28;20260;-80
2023/12/12 04:21:30;;;;;;;3.90;2.40;;;;;;;6.76;87.56;99839.13;5039672;28;20226;-80
2023/12/12 04:23:56;;;;;;;5.47;2.90;;;;;;;6.76;87.09;99841.72;5039719;28;20233;-81
2023/12/12 04:26:22;;;;;;;4.67;2.60;;;;;;;6.79;87.33;99845.16;5039645;28;20204;-81
2023/12/12 04:28:48;;;;;;;4.27;2.53;;;;;;;6.74;86.72;99848.66;5039343;28;20250;-80
2023/12/12 04:31:16;;;;;;;5.40;2.87;;;;;;;6.79;86.28;99852.94;5039111;28;20242;-81
2023/12/12 04:33:42;;;;;;;5.67;2.43;;;;;;;6.81;86.63;99859.81;5039867;28;20200;-80
2023/12/12 04:36:09;;;;;;;5.93;2.70;;;;;;;6.85;85.91;99856.28;5039041;28;20228;-80
2023/12/12 04:38:37;;;;;;;4.93;2.60;;;;;;;6.79;86.13;99866.75;5038783;28;20263;-80
2023/12/12 04:41:04;;;;;;;4.50;2.60;;;;;;;6.81;86.11;99864.13;5039228;28;20228;-79
2023/12/12 04:43:31;;;;;;;5.30;2.80;;;;;;;6.79;86.19;99863.31;5028271;28;20218;-80
2023/12/12 04:45:57;;;;;;;3.83;2.50;;;;;;;6.75;86.30;99865.06;5034100;28;20206;-81
2023/12/12 04:48:23;;;;;;;6.10;2.70;;;;;;;6.76;86.38;99862.47;5037020;28;20241;-81
2023/12/12 04:50:50;;;;;;;4.33;2.50;;;;;;;6.75;85.75;99875.44;5039115;28;20662;-81
2023/12/12 04:53:17;;;;;;;5.67;2.40;;;;;;;6.73;85.81;99883.25;5037471;28;20661;-80
2023/12/12 04:55:45;;;;;;;4.07;2.40;;;;;;;6.74;84.76;99887.56;5039372;28;20207;-80
2023/12/12 04:58:11;;;;;;;3.50;2.33;;;;;;;6.66;85.42;99893.69;5036382;28;20240;-80
2023/12/12 05:00:37;;;;;;;2.63;2.33;;;;;;;6.62;84.85;99897.22;5038135;28;20586;-81
2023/12/12 05:03:04;;;;;;;4.23;2.60;;;;;;;6.64;85.30;99901.53;5039364;28;20211;-80
2023/12/12 05:05:30;;;;;;;4.87;2.87;;;;;;;6.62;85.34;99899.81;5038195;28;20203;-80
2023/12/12 05:07:56;;;;;;;6.33;2.90;;;;;;;6.54;84.52;99908.53;5038816;28;20196;-80
2023/12/12 05:10:23;;;;;;;6.10;2.90;;;;;;;6.54;84.97;99902.47;5039227;28;20305;-80
2023/12/12 05:12:50;;;;;;;3.23;2.93;;;;;;;6.49;84.78;99906.88;5038469;28;20594;-80
2023/12/12 05:15:17;;;;;;;5.73;3.20;;;;;;;6.57;84.55;99903.31;5038511;28;20329;-80
2023/12/12 05:17:43;;;;;;;4.43;2.60;;;;;;;6.52;85.04;99909.41;5038841;28;20248;-81
2023/12/12 05:20:12;;;;;;;4.37;2.60;;;;;;;6.54;85.16;99910.25;5038457;28;20276;-80
2023/12/12 05:22:38;;;;;;;10.27;3.83;;;;;;;6.44;85.65;99909.53;5038650;28;20247;-80
2023/12/12 05:25:06;;;;;;;3.97;2.73;;;;;;;6.48;85.45;99892.19;5038326;28;20261;-79
2023/12/12 05:27:32;;;;;;;5.97;3.33;;;;;;;6.48;86.16;99872.31;5038503;28;20208;-81
2023/12/12 05:30:00;;;;;;;8.33;3.87;;;;;;;6.57;86.29;99874.78;5030204;28;20199;-80
2023/12/12 05:32:26;;;;;;;5.70;3.03;;;;;;;6.51;86.77;99850.69;5036138;28;20249;-80
2023/12/12 05:34:52;;;;;;;3.70;3.13;;;;;;;6.60;87.43;99853.16;5038250;28;20237;-79
2023/12/12 05:37:19;;;;;;;7.30;3.47;;;;;;;6.68;87.56;99840.06;5037917;28;20249;-80
2023/12/12 05:39:46;;;;;;;5.40;3.27;;;;;;;6.73;87.91;99831.38;5038176;28;20750;-80
2023/12/12 05:42:12;;;;;;;8.33;3.70;;;;;;;6.74;87.75;99825.31;5038617;28;20253;-79
2023/12/12 05:44:39;;;;;;;6.83;3.30;;;;;;;6.72;88.35;99814.09;5038498;28;20748;-81
2023/12/12 05:47:06;;;;;;;4.53;3.13;;;;;;;6.80;89.45;99797.56;5038501;28;20203;-80
2023/12/12 05:49:33;;;;;;;4.60;3.10;;;;;;;6.85;88.96;99783.66;5038706;28;20289;-80
2023/12/12 05:52:00;;;;;;;4.10;2.63;;;;;;;6.87;89.32;99784.47;5037463;28;20224;-81
2023/12/12 05:54:26;;;;;;;5.40;3.60;;;;;;;6.89;90.01;99772.34;5038812;28;20243;-81
2023/12/12 05:56:53;;;;;;;3.83;3.27;;;;;;;6.93;89.70;99778.34;5038401;28;20228;-81
2023/12/12 05:59:21;;;;;;;4.43;3.00;;;;;;;6.91;89.95;99773.19;5035544;28;20210;-80
2023/12/12 06:01:47;;;;;;;4.87;3.50;;;;;;;6.86;90.06;99767.22;5037369;28;20220;-80
2023/12/12 06:04:16;;;;;;;6.87;3.40;;;;;;;6.88;90.39;99749.03;5037418;28;20229;-81
2023/12/12 06:06:43;;;;;;;4.63;3.27;;;;;;;6.93;91.08;99747.22;5037556;28;20684;-80
2023/12/12 06:09:10;;;;;;;4.17;3.67;;;;;;;6.87;91.70;99739.53;5038353;28;20207;-80
2023/12/12 06:11:36;;;;;;;3.80;3.33;;;;;;;6.99;92.04;99722.91;5037607;28;20232;-80
2023/12/12 06:14:03;;;;;;;4.63;3.57;;;;;;;6.97;91.33;99718.59;5029497;28;20703;-81
2023/12/12 06:16:30;;;;;;;5.20;2.67;;;;;;;7.03;91.13;99724.59;5037654;28;20626;-80
2023/12/12 06:18:56;;;;;;;3.40;2.43;;;;;;;7.02;91.72;99718.53;5038427;28;20201;-80
2023/12/12 06:21:24;;;;;;;3.13;2.50;;;;;;;7.07;91.47;99708.94;5037400;28;20234;-80
2023/12/12 06:23:50;;;;;;;5.47;2.63;;;;;;;7.09;91.74;99712.34;5021536;28;20579;-80
2023/12/12 06:26:17;;;;;;;9.40;2.63;;;;;;;7.08;91.42;99718.44;5038221;28;20230;-81
2023/12/12 06:28:43;;;;;;;3.27;2.77;;;;;;;7.13;91.59;99719.22;5034013;28;20261;-80
2023/12/12 06:31:09;;;;;;;4.17;2.60;;;;;;;6.81;93.34;99698.13;5036761;28;20288;-80
2023/12/12 06:33:36;;;;;;;4.90;3.07;;;;;;;6.76;94.46;99669.69;5037151;28;20214;-80
2023/12/12 06:36:02;;;;;;;3.20;2.63;;;;;;;7.01;94.73;99651.94;5037452;28;20225;-79
2023/12/12 06:38:30;;;;;;;5.67;2.73;;;;;;;7.13;93.55;99659.53;5038026;28;20268;-80
2023/12/12 06:40:56;;;;;;;6.00;3.20;;;;;;;7.20;93.23;99673.25;5037671;28;20258;-80
2023/12/12 06:43:22;;;;;;;4.00;3.17;;;;;;;7.19;92.58;99675.88;5037276;28;20730;-79
2023/12/12 06:45:49;;;;;;;3.73;3.20;;;;;;;7.14;93.15;99681.16;5037093;28;20203;-80
2023/12/12 06:48:15;;;;;;;6.30;2.77;;;;;;;7.09;93.56;99672.59;5037506;28;20202;-80
2023/12/12 06:50:41;;;;;;;4.10;2.83;;;;;;;7.14;93.19;99663.00;5023029;28;20227;-79
2023/12/12 06:53:08;;;;;;;7.87;2.60;;;;;;;7.23;93.21;99668.00;5030968;28;20205;-80
2023/12/12 06:55:37;;;;;;;6.07;2.43;;;;;;;7.13;94.49;99659.53;5037473;28;20206;-80
2023/12/12 06:58:04;;;;;;;4.30;3.17;;;;;;;7.19;94.54;99657.72;5035136;28;20225;-79
2023/12/12 07:00:30;;;;;;;4.20;3.07;;;;;;;7.23;94.25;99655.03;5033833;28;20230;-80
2023/12/12 07:02:57;;;;;;;4.50;2.67;;;;;;;7.26;94.41;99646.34;5036269;28;20654;-81
2023/12/12 07:05:23;;;;;;;6.40;2.53;;;;;;;7.32;93.73;99656.63;5037035;28;20210;-81
2023/12/12 07:07:50;;;;;;;5.00;3.10;;;;;;;7.34;94.46;99650.50;5036648;28;20207;-80
2023/12/12 07:10:16;;;;;;;4.10;2.80;;;;;;;7.38;94.92;99648.72;5037528;28;20237;-80
2023/12/12 07:12:44;;;;;;;5.30;2.90;;;;;;;7.42;94.77;99650.38;5028813;28;20204;-80
2023/12/12 07:15:11;;;;;;;2.80;2.20;;;;;;;7.44;94.16;99660.72;5036730;28;20212;-80
2023/12/12 07:17:38;;;;;;;4.37;2.73;;;;;;;7.44;94.25;99658.13;5037385;28;20232;-81
2023/12/12 07:20:05;;;;;;;4.73;3.00;;;;;;;7.48;93.31;99660.63;5036792;28;20225;-80
2023/12/12 07:22:32;;;;;;;3.23;2.80;;;;;;;7.50;93.69;99668.41;5036308;28;20210;-82
2023/12/12 07:24:58;;;;;;;5.47;3.10;;;;;;;7.45;93.13;99683.19;5037409;28;20205;-81
2023/12/12 07:27:25;;;;;;;6.53;3.93;;;;;;;7.47;93.08;99682.31;5036543;28;20244;-80
2023/12/12 07:29:53;;;;;;;4.07;3.40;;;;;;;7.44;93.75;99682.34;5032062;28;20212;-80
2023/12/12 07:32:19;;;;;;;4.20;3.87;;;;;;;7.21;94.70;99681.91;5035945;28;20217;-81
2023/12/12 07:34:46;;;;;;;6.47;3.33;;;;;;;7.30;95.39;99648.84;5028668;28;20277;-81
2023/12/12 07:37:12;;;;;;;4.13;3.73;;;;;;;7.18;95.42;99640.44;5036106;28;20710;-80
2023/12/12 07:39:38;;;;;;;5.07;4.00;;;;;;;7.25;95.87;99631.63;5037431;28;20202;-81
2023/12/12 07:42:05;;;;;;;4.50;3.63;;;;;;;7.49;95.43;99638.09;5037042;28;20766;-80
2023/12/12 07:44:31;;;;;;;4.77;4.27;;;;;;;7.54;95.23;99641.47;5039452;28;20207;-79
2023/12/12 07:47:01;;;;;;;4.70;3.50;;;;;;;7.64;94.82;99648.22;5040258;28;20226;-80
2023/12/12 07:49:27;;;;;;;4.00;3.60;;;;;;;7.71;94.07;99656.72;5036818;28;20255;-81
2023/12/12 07:51:54;;;;;;;4.70;3.87;;;;;;;7.73;93.54;99671.41;5022261;28;20284;-81
2023/12/12 07:54:20;;;;;;;4.60;3.63;;;;;;;7.63;93.96;99663.81;5033889;28;20202;-80
2023/12/12 07:56:46;;;;;;;4.97;3.87;;;;;;;7.64;94.90;99658.59;5024922;28;20641;-80
2023/12/12 07:59:13;;;;;;;3.80;3.50;;;;;;;7.72;94.25;99656.69;5029293;28;20253;-81
2023/12/12 08:01:40;;;;;;;4.37;3.73;;;;;;;7.70;95.90;99639.44;5032507;28;20274;-81
2023/12/12 08:04:07;;;;;;;4.53;4.13;;;;;;;7.80;95.75;99630.56;5033520;28;20581;-82
2023/12/12 08:06:34;;;;;;;4.87;4.43;;;;;;;7.71;95.44;99647.22;5024304;28;20668;-80
2023/12/12 08:09:00;;;;;;;6.70;5.07;;;;;;;7.81;95.32;99644.41;5010309;28;20889;-84
2023/12/12 08:11:27;;;;;;;4.43;3.97;;;;;;;7.81;95.38;99649.59;5020519;28;20651;-80
2023/12/12 08:13:54;;;;;;;4.77;4.37;;;;;;;7.68;96.10;99649.84;5033333;28;20741;-84
2023/12/12 08:16:20;;;;;;;5.10;4.70;;;;;;;7.78;96.82;99619.34;5032516;28;20206;-81
2023/12/12 08:18:46;;;;;;;5.40;4.90;;;;;;;7.75;97.55;99601.25;5033084;28;20233;-80
2023/12/12 08:21:14;;;;;;;6.77;5.30;;;;;;;7.77;97.51;99599.47;5032670;28;20228;-80
2023/12/12 08:23:42;;;;;;;6.47;5.47;;;;;;;7.91;97.44;99596.59;5022426;28;20267;-82
2023/12/12 08:26:08;;;;;;;5.07;4.67;;;;;;;7.93;97.87;99603.44;5032222;28;20238;-81
2023/12/12 08:28:35;;;;;;;6.30;4.67;;;;;;;8.02;97.26;99602.38;5029576;28;20253;-81
2023/12/12 08:31:01;;;;;;;7.33;4.80;;;;;;;8.00;97.61;99603.31;5035615;28;20295;-81
2023/12/12 08:33:27;;;;;;;5.30;4.80;;;;;;;8.05;97.34;99604.91;5035323;28;20272;-80
2023/12/12 08:35:54;;;;;;;9.13;4.77;;;;;;;8.10;97.58;99591.81;5035789;28;20204;-82
2023/12/12 08:38:22;;;;;;;6.57;5.87;;;;;;;8.10;98.13;99590.06;5035766;28;20603;-81
2023/12/12 08:40:48;;;;;;;6.53;5.93;;;;;;;8.18;98.11;99584.69;5035902;28;20648;-80
2023/12/12 08:43:15;;;;;;;6.33;5.70;;;;;;;8.16;99.27;99571.72;5035372;28;20213;-79
2023/12/12 08:45:44;;;;;;;5.93;5.40;;;;;;;8.25;98.91;99575.88;5035200;28;20206;-80
2023/12/12 08:48:10;;;;;;;5.60;5.10;;;;;;;8.29;99.25;99567.09;5035777;28;20202;-80
2023/12/12 08:50:36;;;;;;;5.77;5.07;;;;;;;8.36;99.27;99580.81;5035220;28;20226;-79
2023/12/12 08:53:03;;;;;;;5.80;5.20;;;;;;;8.43;99.00;99576.38;5034548;28;20238;-80
2023/12/12 08:55:31;;;;;;;5.53;5.07;;;;;;;8.50;98.50;99575.31;5035768;28;20263;-80
2023/12/12 08:57:57;;;;;;;4.93;4.53;;;;;;;8.55;98.19;99576.06;5035355;28;20646;-80
2023/12/12 09:00:24;;;;;;;5.93;5.33;;;;;;;8.52;98.72;99570.91;5030083;28;20785;-80
2023/12/12 09:02:51;;;;;;;6.93;5.67;;;;;;;8.64;98.61;99567.16;5035172;28;20677;-79
2023/12/12 09:05:17;;;;;;;6.43;5.63;;;;;;;8.70;98.22;99575.69;5035955;28;20229;-81
2023/12/12 09:07:44;;;;;;;7.53;6.90;;;;;;;8.72;98.33;99573.91;5028577;28;20202;-80
2023/12/12 09:10:10;;;;;;;6.97;6.23;;;;;;;8.76;97.85;99582.50;5034742;28;20223;-79
2023/12/12 09:12:38;;;;;;;6.33;5.73;;;;;;;8.80;97.67;99584.13;5031837;28;20249;-83
2023/12/12 09:15:06;;;;;;;6.80;6.20;;;;;;;8.87;97.29;99595.22;5014852;28;20210;-81
2023/12/12 09:17:33;;;;;;;6.83;6.20;;;;;;;8.85;96.99;99604.81;5030656;28;20226;-81
2023/12/12 09:20:00;;;;;;;11.23;8.63;;;;;;;8.92;96.52;99607.22;5029984;28;20206;-80
2023/12/12 09:22:27;;;;;;;8.13;7.43;;;;;;;8.93;96.66;99611.50;5026647;28;20299;-80
2023/12/12 09:24:54;;;;;;;7.53;6.83;;;;;;;9.03;96.56;99609.53;5026817;28;20203;-80
2023/12/12 09:27:20;;;;;;;7.10;6.47;;;;;;;9.10;96.45;99613.69;5031552;28;20210;-82
2023/12/12 09:29:48;;;;;;;7.33;6.63;;;;;;;9.17;96.66;99619.59;5027091;28;20241;-81
2023/12/12 09:32:14;;;;;;;6.57;5.80;;;;;;;9.29;98.19;99598.41;5034658;28;20210;-81
2023/12/12 09:34:41;;;;;;;9.73;7.67;;;;;;;9.35;98.09;99594.78;5032211;28;20237;-80
2023/12/12 09:37:07;;;;;;;18.93;10.50;;;;;;;9.51;100.00;99559.63;5035813;28;20661;-81
2023/12/12 09:39:33;;;;;;;9.83;8.83;;;;;;;9.61;100.00;99547.16;5030581;28;20237;-81
2023/12/12 09:42:01;;;;;;;11.40;10.20;;;;;;;9.71;100.00;99529.50;5027604;28;20230;-81
2023/12/12 09:44:31;;;;;;;10.97;9.90;;;;;;;9.77;100.00;99537.13;5034674;28;20271;-81
2023/12/12 09:47:03;;;;;;;10.63;9.53;;;;;;;9.72;98.80;99552.91;5027965;28;20264;-81
2023/12/12 09:49:33;;;;;;;13.33;9.77;;;;;;;9.89;99.24;99543.72;5035575;28;20289;-81
2023/12/12 09:52:01;;;;;;;9.83;8.93;;;;;;;9.96;99.48;99537.44;5034657;28;20486;-81
2023/12/12 09:54:28;;;;;;;14.07;8.60;;;;;;;10.03;99.00;99538.97;5036177;28;20214;-80
2023/12/12 09:56:55;;;;;;;13.33;8.37;;;;;;;10.06;97.88;99556.25;5035823;28;20217;-80
2023/12/12 09:59:22;;;;;;;8.70;7.83;;;;;;;10.07;96.71;99581.44;5029164;28;20229;-79
2023/12/12 10:01:52;;;;;;;9.47;7.90;;;;;;;10.08;96.66;99583.97;5034539;28;20239;-80
2023/12/12 10:04:20;;;;;;;9.97;8.00;;;;;;;10.10;96.20;99592.59;5035464;28;20206;-81
2023/12/12 10:06:52;;;;;;;8.60;7.70;;;;;;;10.14;98.19;99564.69;5034749;28;20210;-81
2023/12/12 10:09:19;;;;;;;11.00;7.10;;;;;;;9.85;98.38;99556.03;5034977;28;20233;-80
2023/12/12 10:11:46;;;;;;;8.50;6.60;;;;;;;9.65;95.80;99573.97;5035111;28;20238;-80
2023/12/12 10:14:12;;;;;;;7.57;5.60;;;;;;;9.79;98.50;99553.59;5027093;28;20275;-79
2023/12/12 10:16:38;;;;;;;6.53;5.33;;;;;;;9.71;95.01;99576.41;5034487;28;20252;-82
2023/12/12 10:19:06;;;;;;;8.40;6.03;;;;;;;9.71;93.73;99605.06;5016202;28;20222;-80
2023/12/12 10:21:35;;;;;;;7.83;5.30;;;;;;;9.75;94.13;99617.13;5030793;28;20724;-80
2023/12/12 10:24:01;;;;;;;6.13;5.17;;;;;;;9.49;91.61;99657.81;5027968;28;20656;-81
2023/12/12 10:26:30;;;;;;;8.93;5.30;;;;;;;9.65;91.72;99658.25;5027163;28;20305;-81
2023/12/12 10:28:58;;;;;;;6.60;4.07;;;;;;;9.81;93.68;99645.63;5029224;28;20203;-81
2023/12/12 10:31:24;;;;;;;6.00;4.70;;;;;;;9.94;93.32;99628.72;5034350;28;20303;-81
2023/12/12 10:33:51;;;;;;;6.57;4.50;;;;;;;9.86;90.37;99682.84;5034721;28;20207;-80
2023/12/12 10:36:17;;;;;;;8.50;5.03;;;;;;;9.98;91.16;99665.97;5025564;28;20738;-83
2023/12/12 10:38:45;;;;;;;7.97;4.10;;;;;;;9.83;87.86;99706.41;4670534;28;9999899;-81
2023/12/12 10:41:13;;;;;;;8.37;4.30;;;;;;;9.87;87.83;99731.47;5012513;28;20748;-81
2023/12/12 10:43:41;;;;;;;7.00;4.10;;;;;;;9.88;88.04;99743.59;5020720;28;20241;-80
2023/12/12 10:46:11;;;;;;;6.17;4.53;;;;;;;9.79;85.91;99779.47;5023266;28;20245;-80
2023/12/12 10:48:42;;;;;;;5.53;3.67;;;;;;;9.78;85.82;99786.44;5024259;28;20614;-80
2023/12/12 10:51:10;;;;;;;9.50;5.97;;;;;;;9.59;86.26;99796.47;5028530;28;20257;-81
2023/12/12 10:53:38;;;;;;;5.77;4.83;;;;;;;9.70;87.15;99777.97;5028241;28;20429;-82
2023/12/12 10:56:07;;;;;;;5.07;4.20;;;;;;;10.09;85.60;99783.03;5033111;28;20720;-81
2023/12/12 10:58:36;;;;;;;7.90;3.73;;;;;;;10.21;84.71;99803.56;5025798;28;20245;-80
2023/12/12 11:01:03;;;;;;;5.93;4.33;;;;;;;9.97;83.95;99825.06;5030615;28;20218;-81
2023/12/12 11:03:30;;;;;;;7.77;3.93;;;;;;;9.77;83.88;99833.41;5031822;28;20210;-82
2023/12/12 11:05:56;;;;;;;8.97;4.40;;;;;;;9.79;84.36;99835.09;5032484;28;20206;-83
2023/12/12 11:08:24;;;;;;;8.23;4.20;;;;;;;9.78;84.92;99822.94;5027376;28;20273;-81
2023/12/12 11:10:52;;;;;;;7.70;3.63;;;;;;;9.71;84.59;99818.75;5028739;28;20222;-80
2023/12/12 11:13:22;;;;;;;4.93;3.47;;;;;;;9.74;84.31;99822.16;5028170;28;20238;-81
2023/12/12 11:15:49;;;;;;;5.83;3.33;;;;;;;9.78;84.60;99807.31;5016767;28;20214;-81
2023/12/12 11:18:16;;;;;;;5.23;3.07;;;;;;;9.83;84.93;99808.06;5014171;28;20230;-81
2023/12/12 11:20:42;;;;;;;6.90;2.87;;;;;;;9.82;82.20;99848.03;5013944;28;20239;-80
2023/12/12 11:23:09;;;;;;;6.40;3.27;;;;;;;9.79;83.39;99855.06;5018382;28;20209;-81
2023/12/12 11:25:37;;;;;;;8.00;3.30;;;;;;;9.61;84.52;99831.16;5017073;28;20256;-82
2023/12/12 11:28:05;;;;;;;4.37;3.13;;;;;;;9.53;84.78;99813.16;5013650;28;20269;-81
2023/12/12 11:30:37;;;;;;;6.07;3.13;;;;;;;9.99;85.42;99774.59;5025878;28;20241;-82
2023/12/12 11:33:03;;;;;;;4.83;2.27;;;;;;;9.88;84.64;99785.31;5032782;28;20213;-81
2023/12/12 11:35:31;;;;;;;5.10;2.37;;;;;;;9.84;85.40;99782.84;5032350;28;20622;-81
2023/12/12 11:38:00;;;;;;;4.17;2.70;;;;;;;9.94;85.83;99760.81;5023125;28;20240;-80
2023/12/12 11:40:27;;;;;;;10.67;2.33;;;;;;;10.12;85.11;99746.41;5031924;28;20226;-79